Flight Track Log - Related Links

Times and Time Zones

All times are in EDT time to prevent confusion due to time zone crossing. See the SWA554 flight status page for this flight to view local times or setup timezone preferences in your user account.

Time Position Orientation Groundspeed Altitude Reporting Facility
EDT Latitude Longitude Course Direction KTS km/h feet Rate Location/Type
Thu 09:20:12 36.0764 -115.1600 268° West 185 343 3.100  Level Los Angeles Center
Thu 09:21:06 36.0747 -115.2219 268° West 206 381 6.000 3.111 Climbing Los Angeles Center
Thu 09:21:33 36.0661 -115.2481 248° West 218 404 7.300 3.491 Climbing Los Angeles Center
Thu 09:22:01 36.0353 -115.2694 209° Southwest 245 454 9.200 3.541 Climbing Los Angeles Center
Thu 09:22:34 36.0031 -115.2822 198° South 244 452 10.900 3.699 Climbing Los Angeles Center
Thu 09:23:14 35.9425 -115.2892 185° South 313 579 13.700 3.836 Climbing Los Angeles Center
Thu 09:23:35 35.9172 -115.2769 159° South 299 554 14.800 4.000 Climbing Los Angeles Center
Thu 09:24:02 35.8711 -115.2489 154° Southeast 356 660 16.900 3.738 Climbing Los Angeles Center
Thu 09:24:36 35.8469 -115.1978 120° Southeast 359 665 18.600 2.164 Climbing Los Angeles Center
Thu 09:25:03 35.8336 -115.1258 103° East 397 735 19.100 393 Climbing Los Angeles Center
Thu 09:25:37 35.8236 -115.0642 101° East 394 729 19.000 -63 Descending Los Angeles Center
Thu 09:26:38 35.8322 -114.9308 85° East 392 726 19.000 1.082 Level Los Angeles Center
Thu 09:27:39 35.8419 -114.7944 85° East 398 737 21.200 1.967 Climbing Los Angeles Center
Thu 09:28:40 35.8519 -114.6514 85° East 418 774 23.000 2.213 Climbing Los Angeles Center
Thu 09:29:41 35.8111 -114.5147 110° East 434 803 25.700 2.902 Climbing Los Angeles Center
Thu 09:30:42 35.7472 -114.3925 123° Southeast 427 790 28.900 1.623 Climbing Los Angeles Center
Thu 09:31:43 35.6692 -114.2469 123° Southeast 441 816 29.000 49 Climbing Los Angeles Center
Thu 09:32:45 35.5944 -114.1028 122° Southeast 487 901 29.000  Level Los Angeles Center
Thu 09:33:46 35.5203 -113.9639 123° Southeast 489 906 29.000  Level Los Angeles Center
Thu 09:34:47 35.4447 -113.8250 124° Southeast 491 909 29.000  Level Los Angeles Center
Thu 09:35:48 35.3697 -113.6892 124° Southeast 487 901 29.000  Level Los Angeles Center
Thu 09:36:50 35.2953 -113.5511 123° Southeast 488 904 29.000  Level Los Angeles Center
Thu 09:37:51 35.2047 -113.3858 124° Southeast 492 911 29.000  Level Los Angeles Center
Thu 09:38:52 35.1292 -113.2489 124° Southeast 493 912 29.000  Level Los Angeles Center
Thu 09:39:51 35.0550 -113.1117 123° Southeast 494 914 29.000  Level Albuquerque Center
Thu 09:40:52 34.9786 -112.9739 124° Southeast 496 919 29.000  Level Albuquerque Center
Thu 09:41:53 34.9017 -112.8364 124° Southeast 497 921 29.000  Level Albuquerque Center
Thu 09:42:54 34.8250 -112.7003 124° Southeast 494 914 29.000 -639 Level Albuquerque Center
Thu 09:43:55 34.7503 -112.5647 124° Southeast 489 906 27.700 -1.561 Descending Albuquerque Center
Thu 09:44:57 34.6692 -112.4419 129° Southeast 475 880 25.800 -2.341 Descending Albuquerque Center
Thu 09:45:58 34.5656 -112.3478 143° Southeast 450 834 22.900 -2.705 Descending Albuquerque Center
Thu 09:46:59 34.4711 -112.2556 141° Southeast 439 813 20.300 -1.770 Descending Albuquerque Center
Thu 09:48:00 34.3444 -112.2036 161° South 402 745 19.300 -1.525 Descending Albuquerque Center
Thu 09:49:01 34.2419 -112.1764 168° South 384 711 17.200 -2.164 Descending Albuquerque Center
Thu 09:50:02 34.1375 -112.1492 168° South 377 698 14.900 -1.707 Descending Albuquerque Center
Thu 09:51:04 34.0469 -112.1403 175° South 342 634 13.700 -1.415 Descending Albuquerque Center
Thu 09:52:05 33.9594 -112.1497 185° South 320 592 12.000 -1.672 Descending Albuquerque Center
Thu 09:53:06 33.8747 -112.1617 187° South 310 575 10.300 -1.623 Descending Albuquerque Center
Thu 09:54:07 33.7931 -112.1797 190° South 301 557 8.700 -1.268 Descending Albuquerque Center
Thu 09:55:09 33.7133 -112.1964 190° South 293 542 7.700 -1.024 Descending Albuquerque Center
Thu 09:56:10 33.6297 -112.2150 191° South 256 475 6.600 -984 Descending Albuquerque Center
Thu 09:57:11 33.5619 -112.2103 177° South 245 454 5.700 -934 Descending Albuquerque Center
Thu 09:58:12 33.4964 -112.2050 176° South 238 441 4.700 -1.024 Descending Albuquerque Center
Thu 09:59:14 33.4581 -112.1450 127° Southeast 231 428 3.600 -1.171 Descending Albuquerque Center
Thu 10:00:15 33.4408 -112.0933 112° Southeast 169 312 2.300 -1.033 Descending Albuquerque Center
Thu 10:01:16 33.4403 -112.0486 91° East 138 256 1.500 -590 Descending Albuquerque Center
Thu 10:02:17 33.4408 -112.0069 89° East 120 222 1.100 -393 Descending Albuquerque Center

Login

Don't have an account? Register now (free) for customized features, flight alerts, and more!